This is the latest recevied weather packets stored in our database for station/object KO4ZGL-13. If no packets are shown the sender has not sent any weather packets the latest 10 day(s).
| Time | Temp. | Humidity | Pressure | Rain* | Wind** | Luminosity | Snow |
|---|---|---|---|---|---|---|---|
| 1787853845 | 28.89° C | 87% | 1015.6 hPa | 0 mm | - | 237 W/m² | - |
| 1787853543 | 28.33° C | 88% | 1015.6 hPa | 0 mm | - | 257 W/m² | - |
| 1787853238 | 28.33° C | 88% | 1015.8 hPa | 0 mm | - | 232 W/m² | - |
| 1787852937 | 28.33° C | 87% | 1015.9 hPa | 0 mm | - | 176 W/m² | - |
| 1787852633 | 28.33° C | 87% | 1015.9 hPa | 0 mm | - | 199 W/m² | - |
| 1787852332 | 28.89° C | 87% | 1015.9 hPa | 0 mm | - | 225 W/m² | - |
| 1787852031 | 28.89° C | 86% | 1016 hPa | 0 mm | - | 229 W/m² | - |
| 1787851730 | 28.89° C | 85% | 1016.2 hPa | 0 mm | - | 189 W/m² | - |
| 1787851425 | 28.89° C | 84% | 1016.2 hPa | 0 mm | - | 186 W/m² | - |
| 1787851121 | 29.44° C | 84% | 1016.4 hPa | 0 mm | - | 200 W/m² | - |
| 1787850816 | 30° C | 83% | 1016.3 hPa | 0 mm | - | 220 W/m² | - |
| 1787850512 | 30.56° C | 83% | 1016.1 hPa | 0 mm | - | 257 W/m² | - |
| 1787850207 | 30.56° C | 81% | 1016.2 hPa | 0 mm | - | 233 W/m² | - |
| 1787849902 | 30.56° C | 82% | 1016.6 hPa | 0 mm | - | 240 W/m² | - |
| 1787849601 | 30.56° C | 82% | 1016.6 hPa | 0 mm | - | 174 W/m² | - |
| 1787849301 | 30.56° C | 80% | 1016.2 hPa | 0 mm | - | 120 W/m² | - |
| 1787848995 | 31.11° C | 78% | 1016.6 hPa | 0 mm | - | 125 W/m² | - |
| 1787848689 | 31.67° C | 77% | 1016.8 hPa | 0 mm | - | 213 W/m² | - |
| 1787848384 | 32.78° C | 75% | 1016.6 hPa | 0 mm | - | 313 W/m² | - |
| 1787848079 | 32.22° C | 77% | 1016.7 hPa | 0 mm | - | 768 W/m² | - |
| 1787847778 | 31.67° C | 77% | 1016.9 hPa | 0 mm | - | 769 W/m² | - |
| 1787847474 | 31.11° C | 79% | 1016.8 hPa | 0 mm | - | 210 W/m² | - |
| 1787847168 | 31.67° C | 80% | 1016.8 hPa | 0 mm | - | 393 W/m² | - |
| 1787846860 | 30.56° C | 83% | 1017.2 hPa | 0 mm | - | 766 W/m² | - |
| 1787846554 | 31.11° C | 80% | 1016.7 hPa | 0 mm | - | 141 W/m² | - |
* Rain latest hour (hover to see other rain measurements)
** Current wind speed in m/s (hover to see current wind gust speed)